sensor_id;sensor_type;location;lat;lon;timestamp;temperature;humidity
3478;DHT22;37937;61.490;23.506;2023-03-14T00:01:20;-1.10;99.90
3478;DHT22;37937;61.490;23.506;2023-03-14T00:03:46;-1.10;99.90
3478;DHT22;37937;61.490;23.506;2023-03-14T00:06:12;-1.00;99.90
3478;DHT22;37937;61.490;23.506;2023-03-14T00:08:38;-0.90;99.90
3478;DHT22;37937;61.490;23.506;2023-03-14T00:11:08;-0.90;99.90
3478;DHT22;37937;61.490;23.506;2023-03-14T00:13:34;-0.90;99.90
3478;DHT22;37937;61.490;23.506;2023-03-14T00:16:10;-0.90;99.90
3478;DHT22;37937;61.490;23.506;2023-03-14T00:18:36;-0.80;99.90
3478;DHT22;37937;61.490;23.506;2023-03-14T00:21:02;-0.80;99.90
3478;DHT22;37937;61.490;23.506;2023-03-14T00:23:28;-0.80;99.90
3478;DHT22;37937;61.490;23.506;2023-03-14T00:26:05;-0.80;99.90
3478;DHT22;37937;61.490;23.506;2023-03-14T00:28:31;-0.70;99.90
3478;DHT22;37937;61.490;23.506;2023-03-14T00:30:56;-0.70;99.90
3478;DHT22;37937;61.490;23.506;2023-03-14T00:33:22;-0.70;99.90
3478;DHT22;37937;61.490;23.506;2023-03-14T00:35:58;-0.60;99.90
3478;DHT22;37937;61.490;23.506;2023-03-14T00:38:24;-0.60;99.90
3478;DHT22;37937;61.490;23.506;2023-03-14T00:40:53;-0.50;99.90
3478;DHT22;37937;61.490;23.506;2023-03-14T00:43:19;-0.40;99.90
3478;DHT22;37937;61.490;23.506;2023-03-14T00:45:47;-0.40;99.90
3478;DHT22;37937;61.490;23.506;2023-03-14T00:48:13;-0.40;99.90
3478;DHT22;37937;61.490;23.506;2023-03-14T00:50:38;-0.40;99.90
3478;DHT22;37937;61.490;23.506;2023-03-14T00:53:04;-0.30;99.90
3478;DHT22;37937;61.490;23.506;2023-03-14T00:55:30;-0.30;99.90
3478;DHT22;37937;61.490;23.506;2023-03-14T00:57:55;-0.20;99.90
3478;DHT22;37937;61.490;23.506;2023-03-14T01:00:21;-0.20;99.90
3478;DHT22;37937;61.490;23.506;2023-03-14T01:02:46;-0.10;99.90
3478;DHT22;37937;61.490;23.506;2023-03-14T01:05:12;-0.10;99.90
3478;DHT22;37937;61.490;23.506;2023-03-14T01:07:38;-0.10;99.90
3478;DHT22;37937;61.490;23.506;2023-03-14T01:10:04;0.00;99.90
3478;DHT22;37937;61.490;23.506;2023-03-14T01:12:30;0.10;99.90
3478;DHT22;37937;61.490;23.506;2023-03-14T01:14:56;0.10;99.90
3478;DHT22;37937;61.490;23.506;2023-03-14T01:17:21;0.20;99.90
3478;DHT22;37937;61.490;23.506;2023-03-14T01:19:47;0.20;99.90
3478;DHT22;37937;61.490;23.506;2023-03-14T01:22:13;0.20;99.90
3478;DHT22;37937;61.490;23.506;2023-03-14T01:24:39;0.30;99.90
3478;DHT22;37937;61.490;23.506;2023-03-14T01:27:04;0.30;99.90
3478;DHT22;37937;61.490;23.506;2023-03-14T01:29:30;0.30;99.90
3478;DHT22;37937;61.490;23.506;2023-03-14T01:31:56;0.30;99.90
3478;DHT22;37937;61.490;23.506;2023-03-14T01:34:21;0.40;99.90
3478;DHT22;37937;61.490;23.506;2023-03-14T01:36:47;0.40;99.90
3478;DHT22;37937;61.490;23.506;2023-03-14T01:39:13;0.40;99.90
3478;DHT22;37937;61.490;23.506;2023-03-14T01:41:38;0.40;99.90
3478;DHT22;37937;61.490;23.506;2023-03-14T01:44:04;0.40;99.90
3478;DHT22;37937;61.490;23.506;2023-03-14T01:46:32;0.40;99.90
3478;DHT22;37937;61.490;23.506;2023-03-14T01:54:05;0.50;99.90
3478;DHT22;37937;61.490;23.506;2023-03-14T01:56:32;0.50;99.90
3478;DHT22;37937;61.490;23.506;2023-03-14T01:58:58;0.60;99.90
3478;DHT22;37937;61.490;23.506;2023-03-14T02:01:24;0.60;99.90
3478;DHT22;37937;61.490;23.506;2023-03-14T02:03:54;0.70;99.90
3478;DHT22;37937;61.490;23.506;2023-03-14T02:06:25;0.80;99.90
3478;DHT22;37937;61.490;23.506;2023-03-14T02:08:51;0.70;99.90
3478;DHT22;37937;61.490;23.506;2023-03-14T02:11:17;0.70;99.90
3478;DHT22;37937;61.490;23.506;2023-03-14T02:13:44;0.70;99.90
3478;DHT22;37937;61.490;23.506;2023-03-14T02:16:09;0.70;99.90
3478;DHT22;37937;61.490;23.506;2023-03-14T02:18:35;0.70;99.90
3478;DHT22;37937;61.490;23.506;2023-03-14T02:21:23;0.80;99.90
3478;DHT22;37937;61.490;23.506;2023-03-14T02:23:57;0.80;99.90
3478;DHT22;37937;61.490;23.506;2023-03-14T02:26:27;0.80;99.90
3478;DHT22;37937;61.490;23.506;2023-03-14T02:28:53;0.80;99.90
3478;DHT22;37937;61.490;23.506;2023-03-14T02:31:19;0.80;99.90
3478;DHT22;37937;61.490;23.506;2023-03-14T02:33:46;0.90;99.90
3478;DHT22;37937;61.490;23.506;2023-03-14T02:36:13;0.90;99.90
3478;DHT22;37937;61.490;23.506;2023-03-14T02:41:05;1.00;99.90
3478;DHT22;37937;61.490;23.506;2023-03-14T02:43:30;1.00;99.90
3478;DHT22;37937;61.490;23.506;2023-03-14T02:45:56;1.00;99.90
3478;DHT22;37937;61.490;23.506;2023-03-14T02:48:24;1.00;99.90
3478;DHT22;37937;61.490;23.506;2023-03-14T02:50:50;1.10;99.90
3478;DHT22;37937;61.490;23.506;2023-03-14T02:53:18;1.10;99.90
3478;DHT22;37937;61.490;23.506;2023-03-14T02:55:45;1.20;99.90
3478;DHT22;37937;61.490;23.506;2023-03-14T02:58:10;1.20;99.90
3478;DHT22;37937;61.490;23.506;2023-03-14T03:00:36;1.20;99.90
3478;DHT22;37937;61.490;23.506;2023-03-14T03:03:02;1.20;99.90
3478;DHT22;37937;61.490;23.506;2023-03-14T03:05:27;1.30;99.90
3478;DHT22;37937;61.490;23.506;2023-03-14T03:07:53;1.30;99.90
3478;DHT22;37937;61.490;23.506;2023-03-14T03:10:18;1.30;99.90
3478;DHT22;37937;61.490;23.506;2023-03-14T03:12:44;1.30;99.90
3478;DHT22;37937;61.490;23.506;2023-03-14T03:15:10;1.40;99.90
3478;DHT22;37937;61.490;23.506;2023-03-14T03:17:35;1.40;99.90
3478;DHT22;37937;61.490;23.506;2023-03-14T03:20:01;1.40;99.90
3478;DHT22;37937;61.490;23.506;2023-03-14T03:22:27;1.40;99.90
3478;DHT22;37937;61.490;23.506;2023-03-14T03:24:52;1.40;99.90
3478;DHT22;37937;61.490;23.506;2023-03-14T03:27:18;1.50;99.90
3478;DHT22;37937;61.490;23.506;2023-03-14T03:29:43;1.50;99.90
3478;DHT22;37937;61.490;23.506;2023-03-14T03:32:09;1.40;99.90
3478;DHT22;37937;61.490;23.506;2023-03-14T03:34:34;1.50;99.90
3478;DHT22;37937;61.490;23.506;2023-03-14T03:37:00;1.50;99.90
3478;DHT22;37937;61.490;23.506;2023-03-14T03:39:26;1.50;99.90
3478;DHT22;37937;61.490;23.506;2023-03-14T03:41:51;1.50;99.90
3478;DHT22;37937;61.490;23.506;2023-03-14T03:44:17;1.60;99.90
3478;DHT22;37937;61.490;23.506;2023-03-14T03:46:42;1.60;99.90
3478;DHT22;37937;61.490;23.506;2023-03-14T03:49:08;1.60;99.90
3478;DHT22;37937;61.490;23.506;2023-03-14T03:51:34;1.60;99.90
3478;DHT22;37937;61.490;23.506;2023-03-14T03:53:59;1.60;99.90
3478;DHT22;37937;61.490;23.506;2023-03-14T03:56:25;1.60;99.90
3478;DHT22;37937;61.490;23.506;2023-03-14T03:58:51;1.70;99.90
3478;DHT22;37937;61.490;23.506;2023-03-14T04:01:16;1.60;99.90
3478;DHT22;37937;61.490;23.506;2023-03-14T04:03:42;1.80;99.90
3478;DHT22;37937;61.490;23.506;2023-03-14T04:06:09;1.70;99.90
3478;DHT22;37937;61.490;23.506;2023-03-14T04:08:34;1.80;99.90
3478;DHT22;37937;61.490;23.506;2023-03-14T04:11:00;1.80;99.90
3478;DHT22;37937;61.490;23.506;2023-03-14T04:13:26;1.80;99.90
3478;DHT22;37937;61.490;23.506;2023-03-14T04:15:52;1.80;99.90
3478;DHT22;37937;61.490;23.506;2023-03-14T04:18:18;1.90;99.90
3478;DHT22;37937;61.490;23.506;2023-03-14T04:20:43;1.90;99.90
3478;DHT22;37937;61.490;23.506;2023-03-14T04:23:09;2.00;99.90
3478;DHT22;37937;61.490;23.506;2023-03-14T04:25:35;2.00;99.90
3478;DHT22;37937;61.490;23.506;2023-03-14T04:28:01;2.00;99.90
3478;DHT22;37937;61.490;23.506;2023-03-14T04:30:26;2.10;99.90
3478;DHT22;37937;61.490;23.506;2023-03-14T04:32:52;2.10;99.90
3478;DHT22;37937;61.490;23.506;2023-03-14T04:35:17;2.20;99.90
3478;DHT22;37937;61.490;23.506;2023-03-14T04:37:43;2.20;99.90
3478;DHT22;37937;61.490;23.506;2023-03-14T04:40:09;2.20;99.90
3478;DHT22;37937;61.490;23.506;2023-03-14T04:42:35;2.20;99.90
3478;DHT22;37937;61.490;23.506;2023-03-14T04:45:00;2.20;99.90
3478;DHT22;37937;61.490;23.506;2023-03-14T04:47:26;2.30;99.90
3478;DHT22;37937;61.490;23.506;2023-03-14T04:49:52;2.20;99.90
3478;DHT22;37937;61.490;23.506;2023-03-14T04:52:17;2.30;99.90
3478;DHT22;37937;61.490;23.506;2023-03-14T04:54:43;2.30;99.90
3478;DHT22;37937;61.490;23.506;2023-03-14T04:57:09;2.20;99.90
3478;DHT22;37937;61.490;23.506;2023-03-14T04:59:34;2.30;99.90
3478;DHT22;37937;61.490;23.506;2023-03-14T05:02:00;2.30;99.90
3478;DHT22;37937;61.490;23.506;2023-03-14T05:04:25;2.30;99.90
3478;DHT22;37937;61.490;23.506;2023-03-14T05:06:51;2.40;99.90
3478;DHT22;37937;61.490;23.506;2023-03-14T05:09:17;2.40;99.90
3478;DHT22;37937;61.490;23.506;2023-03-14T05:11:42;2.40;99.90
3478;DHT22;37937;61.490;23.506;2023-03-14T05:14:08;2.40;99.90
3478;DHT22;37937;61.490;23.506;2023-03-14T05:16:34;2.40;99.90
3478;DHT22;37937;61.490;23.506;2023-03-14T05:18:59;2.50;99.90
3478;DHT22;37937;61.490;23.506;2023-03-14T05:21:26;2.50;99.90
3478;DHT22;37937;61.490;23.506;2023-03-14T05:23:52;2.50;99.90
3478;DHT22;37937;61.490;23.506;2023-03-14T05:26:18;2.40;99.90
3478;DHT22;37937;61.490;23.506;2023-03-14T05:28:43;2.50;99.90
3478;DHT22;37937;61.490;23.506;2023-03-14T05:31:09;2.50;99.90
3478;DHT22;37937;61.490;23.506;2023-03-14T05:33:35;2.60;99.90
3478;DHT22;37937;61.490;23.506;2023-03-14T05:36:00;2.60;99.90
3478;DHT22;37937;61.490;23.506;2023-03-14T05:38:26;2.60;99.90
3478;DHT22;37937;61.490;23.506;2023-03-14T05:40:51;2.70;99.90
3478;DHT22;37937;61.490;23.506;2023-03-14T05:43:17;2.70;99.90
3478;DHT22;37937;61.490;23.506;2023-03-14T05:45:43;2.70;99.90
3478;DHT22;37937;61.490;23.506;2023-03-14T05:48:08;2.70;99.90
3478;DHT22;37937;61.490;23.506;2023-03-14T05:50:34;2.70;99.90
3478;DHT22;37937;61.490;23.506;2023-03-14T05:52:59;2.80;99.90
3478;DHT22;37937;61.490;23.506;2023-03-14T05:55:25;2.80;99.90
3478;DHT22;37937;61.490;23.506;2023-03-14T05:57:50;2.90;99.90
3478;DHT22;37937;61.490;23.506;2023-03-14T06:00:16;2.90;99.90
3478;DHT22;37937;61.490;23.506;2023-03-14T06:02:42;3.00;99.90
3478;DHT22;37937;61.490;23.506;2023-03-14T06:05:07;3.10;99.90
3478;DHT22;37937;61.490;23.506;2023-03-14T06:07:33;3.10;99.90
3478;DHT22;37937;61.490;23.506;2023-03-14T06:09:59;3.10;99.90
3478;DHT22;37937;61.490;23.506;2023-03-14T06:12:24;3.00;99.90
3478;DHT22;37937;61.490;23.506;2023-03-14T06:14:50;3.10;99.90
3478;DHT22;37937;61.490;23.506;2023-03-14T06:17:16;3.10;99.90
3478;DHT22;37937;61.490;23.506;2023-03-14T06:19:41;3.20;99.90
3478;DHT22;37937;61.490;23.506;2023-03-14T06:22:07;3.20;99.90
3478;DHT22;37937;61.490;23.506;2023-03-14T06:24:32;3.20;99.90
3478;DHT22;37937;61.490;23.506;2023-03-14T06:26:58;3.20;99.90
3478;DHT22;37937;61.490;23.506;2023-03-14T06:29:24;3.30;99.90
3478;DHT22;37937;61.490;23.506;2023-03-14T06:31:49;3.30;99.90
3478;DHT22;37937;61.490;23.506;2023-03-14T06:34:15;3.40;99.90
3478;DHT22;37937;61.490;23.506;2023-03-14T06:36:41;3.40;99.90
3478;DHT22;37937;61.490;23.506;2023-03-14T06:39:06;3.40;99.90
3478;DHT22;37937;61.490;23.506;2023-03-14T06:41:32;3.40;99.90
3478;DHT22;37937;61.490;23.506;2023-03-14T06:43:58;3.40;99.90
3478;DHT22;37937;61.490;23.506;2023-03-14T06:46:23;3.40;99.90
3478;DHT22;37937;61.490;23.506;2023-03-14T06:48:49;3.40;99.90
3478;DHT22;37937;61.490;23.506;2023-03-14T06:51:14;3.40;99.90
3478;DHT22;37937;61.490;23.506;2023-03-14T06:53:40;3.40;99.90
3478;DHT22;37937;61.490;23.506;2023-03-14T06:56:06;3.40;99.90
3478;DHT22;37937;61.490;23.506;2023-03-14T06:58:32;3.40;99.90
3478;DHT22;37937;61.490;23.506;2023-03-14T07:00:57;3.40;99.90
3478;DHT22;37937;61.490;23.506;2023-03-14T07:03:24;3.50;99.90
3478;DHT22;37937;61.490;23.506;2023-03-14T07:05:50;3.50;99.90
3478;DHT22;37937;61.490;23.506;2023-03-14T07:08:15;3.50;99.90
3478;DHT22;37937;61.490;23.506;2023-03-14T07:10:41;3.50;99.90
3478;DHT22;37937;61.490;23.506;2023-03-14T07:13:06;3.50;99.90
3478;DHT22;37937;61.490;23.506;2023-03-14T07:15:32;3.50;99.90
3478;DHT22;37937;61.490;23.506;2023-03-14T07:17:57;3.50;99.90
3478;DHT22;37937;61.490;23.506;2023-03-14T07:20:23;3.50;99.90
3478;DHT22;37937;61.490;23.506;2023-03-14T07:22:49;3.60;99.90
3478;DHT22;37937;61.490;23.506;2023-03-14T07:25:15;3.60;99.90
3478;DHT22;37937;61.490;23.506;2023-03-14T07:27:45;3.60;99.90
3478;DHT22;37937;61.490;23.506;2023-03-14T07:30:11;3.70;99.90
3478;DHT22;37937;61.490;23.506;2023-03-14T07:32:36;3.70;99.90
3478;DHT22;37937;61.490;23.506;2023-03-14T07:35:02;3.70;99.90
3478;DHT22;37937;61.490;23.506;2023-03-14T07:37:28;3.60;99.90
3478;DHT22;37937;61.490;23.506;2023-03-14T07:39:54;3.70;99.90
3478;DHT22;37937;61.490;23.506;2023-03-14T07:42:19;3.80;99.90
3478;DHT22;37937;61.490;23.506;2023-03-14T07:44:45;3.70;99.90
3478;DHT22;37937;61.490;23.506;2023-03-14T07:47:10;3.80;99.90
3478;DHT22;37937;61.490;23.506;2023-03-14T07:49:36;3.80;99.90
3478;DHT22;37937;61.490;23.506;2023-03-14T07:52:02;3.90;99.90
3478;DHT22;37937;61.490;23.506;2023-03-14T07:54:27;3.90;99.90
3478;DHT22;37937;61.490;23.506;2023-03-14T07:56:53;3.90;99.90
3478;DHT22;37937;61.490;23.506;2023-03-14T07:59:18;3.90;99.90
3478;DHT22;37937;61.490;23.506;2023-03-14T08:01:44;3.90;99.90
3478;DHT22;37937;61.490;23.506;2023-03-14T08:04:10;3.90;99.90
3478;DHT22;37937;61.490;23.506;2023-03-14T08:06:36;4.00;99.90
3478;DHT22;37937;61.490;23.506;2023-03-14T08:09:02;4.00;99.90
3478;DHT22;37937;61.490;23.506;2023-03-14T08:11:28;4.00;99.90
3478;DHT22;37937;61.490;23.506;2023-03-14T08:13:53;4.10;99.90
3478;DHT22;37937;61.490;23.506;2023-03-14T08:16:19;4.20;99.90
3478;DHT22;37937;61.490;23.506;2023-03-14T08:18:45;4.20;99.90
3478;DHT22;37937;61.490;23.506;2023-03-14T08:21:11;4.20;99.90
3478;DHT22;37937;61.490;23.506;2023-03-14T08:23:36;4.20;99.90
3478;DHT22;37937;61.490;23.506;2023-03-14T08:26:02;4.10;99.90
3478;DHT22;37937;61.490;23.506;2023-03-14T08:28:27;4.20;99.90
3478;DHT22;37937;61.490;23.506;2023-03-14T08:30:58;4.10;99.90
3478;DHT22;37937;61.490;23.506;2023-03-14T08:33:24;4.10;99.90
3478;DHT22;37937;61.490;23.506;2023-03-14T08:35:58;4.10;99.90
3478;DHT22;37937;61.490;23.506;2023-03-14T08:38:24;4.20;99.90
3478;DHT22;37937;61.490;23.506;2023-03-14T08:40:54;4.20;99.90
3478;DHT22;37937;61.490;23.506;2023-03-14T08:43:20;4.30;99.90
3478;DHT22;37937;61.490;23.506;2023-03-14T08:45:45;4.30;99.90
3478;DHT22;37937;61.490;23.506;2023-03-14T08:48:11;4.40;99.90
3478;DHT22;37937;61.490;23.506;2023-03-14T08:50:36;4.40;99.90
3478;DHT22;37937;61.490;23.506;2023-03-14T08:53:02;4.40;99.90
3478;DHT22;37937;61.490;23.506;2023-03-14T08:55:27;4.50;99.90
3478;DHT22;37937;61.490;23.506;2023-03-14T08:57:53;4.50;99.90
3478;DHT22;37937;61.490;23.506;2023-03-14T09:00:19;4.40;99.90
3478;DHT22;37937;61.490;23.506;2023-03-14T09:02:45;4.40;99.90
3478;DHT22;37937;61.490;23.506;2023-03-14T09:05:11;4.50;99.90
3478;DHT22;37937;61.490;23.506;2023-03-14T09:07:37;4.50;99.90
3478;DHT22;37937;61.490;23.506;2023-03-14T09:10:03;4.40;99.90
3478;DHT22;37937;61.490;23.506;2023-03-14T09:12:29;4.40;99.90
3478;DHT22;37937;61.490;23.506;2023-03-14T09:14:54;4.40;99.90
3478;DHT22;37937;61.490;23.506;2023-03-14T09:17:20;4.40;99.90
3478;DHT22;37937;61.490;23.506;2023-03-14T09:19:45;4.40;99.90
3478;DHT22;37937;61.490;23.506;2023-03-14T09:22:11;4.40;99.90
3478;DHT22;37937;61.490;23.506;2023-03-14T09:24:37;4.50;99.90
3478;DHT22;37937;61.490;23.506;2023-03-14T09:27:02;4.40;99.90
3478;DHT22;37937;61.490;23.506;2023-03-14T09:29:28;4.50;99.90
3478;DHT22;37937;61.490;23.506;2023-03-14T09:31:53;4.60;99.90
3478;DHT22;37937;61.490;23.506;2023-03-14T09:34:19;4.60;99.90
3478;DHT22;37937;61.490;23.506;2023-03-14T09:36:45;4.50;99.90
3478;DHT22;37937;61.490;23.506;2023-03-14T09:39:11;4.40;99.90
3478;DHT22;37937;61.490;23.506;2023-03-14T09:41:37;4.60;99.90
3478;DHT22;37937;61.490;23.506;2023-03-14T09:46:50;4.40;99.90
3478;DHT22;37937;61.490;23.506;2023-03-14T09:49:22;4.60;99.90
3478;DHT22;37937;61.490;23.506;2023-03-14T09:51:49;4.60;99.90
3478;DHT22;37937;61.490;23.506;2023-03-14T09:54:24;4.70;99.90
3478;DHT22;37937;61.490;23.506;2023-03-14T09:56:52;4.70;99.90
3478;DHT22;37937;61.490;23.506;2023-03-14T09:59:18;4.60;99.90
3478;DHT22;37937;61.490;23.506;2023-03-14T10:01:43;4.60;99.90
3478;DHT22;37937;61.490;23.506;2023-03-14T10:04:13;4.60;99.90
3478;DHT22;37937;61.490;23.506;2023-03-14T10:06:40;4.60;99.90
3478;DHT22;37937;61.490;23.506;2023-03-14T10:09:06;4.50;99.90
3478;DHT22;37937;61.490;23.506;2023-03-14T10:11:31;4.50;99.90
3478;DHT22;37937;61.490;23.506;2023-03-14T10:16:30;4.30;99.90
3478;DHT22;37937;61.490;23.506;2023-03-14T10:19:04;4.30;99.90
3478;DHT22;37937;61.490;23.506;2023-03-14T10:21:30;4.20;99.90
3478;DHT22;37937;61.490;23.506;2023-03-14T10:26:40;4.30;99.90
3478;DHT22;37937;61.490;23.506;2023-03-14T10:29:10;4.40;99.90
3478;DHT22;37937;61.490;23.506;2023-03-14T10:31:47;4.30;99.90
3478;DHT22;37937;61.490;23.506;2023-03-14T10:34:21;4.30;99.90
3478;DHT22;37937;61.490;23.506;2023-03-14T10:36:51;4.30;99.90
3478;DHT22;37937;61.490;23.506;2023-03-14T10:41:46;4.20;99.90
3478;DHT22;37937;61.490;23.506;2023-03-14T10:44:12;4.20;99.90
3478;DHT22;37937;61.490;23.506;2023-03-14T10:46:38;4.20;99.90
3478;DHT22;37937;61.490;23.506;2023-03-14T10:49:04;4.20;99.90
3478;DHT22;37937;61.490;23.506;2023-03-14T10:51:30;4.30;99.90
3478;DHT22;37937;61.490;23.506;2023-03-14T10:56:25;4.50;99.90
3478;DHT22;37937;61.490;23.506;2023-03-14T10:58:52;4.50;99.90
3478;DHT22;37937;61.490;23.506;2023-03-14T11:01:25;4.50;99.90
3478;DHT22;37937;61.490;23.506;2023-03-14T11:03:54;4.60;99.90
3478;DHT22;37937;61.490;23.506;2023-03-14T11:11:31;4.70;99.90
3478;DHT22;37937;61.490;23.506;2023-03-14T11:19:00;4.40;99.90
3478;DHT22;37937;61.490;23.506;2023-03-14T11:28:58;4.10;99.90
3478;DHT22;37937;61.490;23.506;2023-03-14T11:31:28;4.00;99.90
3478;DHT22;37937;61.490;23.506;2023-03-14T11:37:13;3.70;99.90
3478;DHT22;37937;61.490;23.506;2023-03-14T11:39:39;3.60;99.90
3478;DHT22;37937;61.490;23.506;2023-03-14T11:42:07;3.50;99.90
3478;DHT22;37937;61.490;23.506;2023-03-14T11:44:38;3.40;99.90
3478;DHT22;37937;61.490;23.506;2023-03-14T11:49:38;3.70;99.90
3478;DHT22;37937;61.490;23.506;2023-03-14T11:52:05;3.70;99.90
3478;DHT22;37937;61.490;23.506;2023-03-14T11:54:35;3.80;99.90
3478;DHT22;37937;61.490;23.506;2023-03-14T11:57:03;3.90;99.90
3478;DHT22;37937;61.490;23.506;2023-03-14T12:02:01;4.30;99.90
3478;DHT22;37937;61.490;23.506;2023-03-14T12:04:36;4.10;99.90
3478;DHT22;37937;61.490;23.506;2023-03-14T12:07:12;3.90;99.90
3478;DHT22;37937;61.490;23.506;2023-03-14T12:09:39;3.80;99.90
3478;DHT22;37937;61.490;23.506;2023-03-14T12:12:05;3.70;99.90
3478;DHT22;37937;61.490;23.506;2023-03-14T12:14:32;3.80;99.90
3478;DHT22;37937;61.490;23.506;2023-03-14T12:17:03;3.70;99.90
3478;DHT22;37937;61.490;23.506;2023-03-14T12:19:31;3.70;99.90
3478;DHT22;37937;61.490;23.506;2023-03-14T12:22:41;3.70;99.90
3478;DHT22;37937;61.490;23.506;2023-03-14T12:24:48;3.50;99.90
3478;DHT22;37937;61.490;23.506;2023-03-14T12:27:37;3.10;99.90
3478;DHT22;37937;61.490;23.506;2023-03-14T12:30:01;3.20;99.90
3478;DHT22;37937;61.490;23.506;2023-03-14T12:32:26;3.30;99.90
3478;DHT22;37937;61.490;23.506;2023-03-14T12:34:52;3.20;99.90
3478;DHT22;37937;61.490;23.506;2023-03-14T12:37:26;3.20;99.90
3478;DHT22;37937;61.490;23.506;2023-03-14T12:42:35;2.90;99.90
3478;DHT22;37937;61.490;23.506;2023-03-14T12:50:07;2.80;99.90
3478;DHT22;37937;61.490;23.506;2023-03-14T12:52:39;2.70;99.90
3478;DHT22;37937;61.490;23.506;2023-03-14T12:55:17;2.60;99.90
3478;DHT22;37937;61.490;23.506;2023-03-14T12:57:47;2.60;99.90
3478;DHT22;37937;61.490;23.506;2023-03-14T13:00:21;2.50;99.90
3478;DHT22;37937;61.490;23.506;2023-03-14T13:02:47;2.70;99.90
3478;DHT22;37937;61.490;23.506;2023-03-14T13:10:30;2.80;99.90
3478;DHT22;37937;61.490;23.506;2023-03-14T13:18:09;2.80;99.90
3478;DHT22;37937;61.490;23.506;2023-03-14T13:20:37;2.90;99.90
3478;DHT22;37937;61.490;23.506;2023-03-14T13:23:04;2.80;99.90
3478;DHT22;37937;61.490;23.506;2023-03-14T13:25:32;2.60;99.90
3478;DHT22;37937;61.490;23.506;2023-03-14T13:27:58;2.60;99.90
3478;DHT22;37937;61.490;23.506;2023-03-14T13:30:27;2.40;99.90
3478;DHT22;37937;61.490;23.506;2023-03-14T13:32:54;2.40;99.90
3478;DHT22;37937;61.490;23.506;2023-03-14T13:35:22;2.40;99.90
3478;DHT22;37937;61.490;23.506;2023-03-14T13:37:52;2.40;99.90
3478;DHT22;37937;61.490;23.506;2023-03-14T13:40:24;2.10;99.90
3478;DHT22;37937;61.490;23.506;2023-03-14T13:42:58;2.10;99.90
3478;DHT22;37937;61.490;23.506;2023-03-14T13:45:24;2.10;99.90
3478;DHT22;37937;61.490;23.506;2023-03-14T13:47:51;2.10;99.90
3478;DHT22;37937;61.490;23.506;2023-03-14T13:50:17;2.10;99.90
3478;DHT22;37937;61.490;23.506;2023-03-14T13:52:44;2.10;99.90
3478;DHT22;37937;61.490;23.506;2023-03-14T13:55:15;2.00;99.90
3478;DHT22;37937;61.490;23.506;2023-03-14T13:57:46;1.90;99.90
3478;DHT22;37937;61.490;23.506;2023-03-14T14:00:19;1.80;99.90
3478;DHT22;37937;61.490;23.506;2023-03-14T14:02:45;1.80;99.90
3478;DHT22;37937;61.490;23.506;2023-03-14T14:05:11;1.80;99.90
3478;DHT22;37937;61.490;23.506;2023-03-14T14:07:37;1.80;99.90
3478;DHT22;37937;61.490;23.506;2023-03-14T14:10:04;1.90;99.90
3478;DHT22;37937;61.490;23.506;2023-03-14T14:12:30;1.90;99.90
3478;DHT22;37937;61.490;23.506;2023-03-14T14:14:58;1.90;99.90
3478;DHT22;37937;61.490;23.506;2023-03-14T14:17:30;1.90;99.90
3478;DHT22;37937;61.490;23.506;2023-03-14T14:19:56;1.90;99.90
3478;DHT22;37937;61.490;23.506;2023-03-14T14:22:22;1.90;99.90
3478;DHT22;37937;61.490;23.506;2023-03-14T14:24:48;1.90;99.90
3478;DHT22;37937;61.490;23.506;2023-03-14T14:27:39;1.70;99.90
3478;DHT22;37937;61.490;23.506;2023-03-14T14:30:45;1.70;99.90
3478;DHT22;37937;61.490;23.506;2023-03-14T14:32:52;1.60;99.90
3478;DHT22;37937;61.490;23.506;2023-03-14T14:35:22;1.40;99.90
3478;DHT22;37937;61.490;23.506;2023-03-14T14:37:48;1.40;99.90
3478;DHT22;37937;61.490;23.506;2023-03-14T14:40:32;1.50;99.90
3478;DHT22;37937;61.490;23.506;2023-03-14T14:43:04;1.50;99.90
3478;DHT22;37937;61.490;23.506;2023-03-14T14:45:30;1.60;99.90
3478;DHT22;37937;61.490;23.506;2023-03-14T14:48:02;1.60;99.90
3478;DHT22;37937;61.490;23.506;2023-03-14T14:55:52;1.70;99.90
3478;DHT22;37937;61.490;23.506;2023-03-14T15:00:52;1.60;99.90
3478;DHT22;37937;61.490;23.506;2023-03-14T15:03:18;1.70;99.90
3478;DHT22;37937;61.490;23.506;2023-03-14T15:05:44;1.70;99.90
3478;DHT22;37937;61.490;23.506;2023-03-14T15:08:10;1.70;99.90
3478;DHT22;37937;61.490;23.506;2023-03-14T15:10:35;1.70;99.90
3478;DHT22;37937;61.490;23.506;2023-03-14T15:13:01;1.60;99.90
3478;DHT22;37937;61.490;23.506;2023-03-14T15:15:27;1.60;99.90
3478;DHT22;37937;61.490;23.506;2023-03-14T15:17:52;1.50;99.90
3478;DHT22;37937;61.490;23.506;2023-03-14T15:20:18;1.60;99.90
3478;DHT22;37937;61.490;23.506;2023-03-14T15:22:45;1.50;99.90
3478;DHT22;37937;61.490;23.506;2023-03-14T15:25:11;1.50;99.90
3478;DHT22;37937;61.490;23.506;2023-03-14T15:27:37;1.50;99.90
3478;DHT22;37937;61.490;23.506;2023-03-14T15:30:14;1.50;99.90
3478;DHT22;37937;61.490;23.506;2023-03-14T15:32:40;1.40;99.90
3478;DHT22;37937;61.490;23.506;2023-03-14T15:35:07;1.40;99.90
3478;DHT22;37937;61.490;23.506;2023-03-14T15:37:33;1.40;99.90
3478;DHT22;37937;61.490;23.506;2023-03-14T15:39:58;1.30;99.90
3478;DHT22;37937;61.490;23.506;2023-03-14T15:42:24;1.30;99.90
3478;DHT22;37937;61.490;23.506;2023-03-14T15:44:50;1.30;99.90
3478;DHT22;37937;61.490;23.506;2023-03-14T15:47:16;1.30;99.90
3478;DHT22;37937;61.490;23.506;2023-03-14T15:49:41;1.30;99.90
3478;DHT22;37937;61.490;23.506;2023-03-14T15:52:07;1.30;99.90
3478;DHT22;37937;61.490;23.506;2023-03-14T15:54:33;1.20;99.90
3478;DHT22;37937;61.490;23.506;2023-03-14T15:56:59;1.20;99.90
3478;DHT22;37937;61.490;23.506;2023-03-14T15:59:25;1.20;99.90
3478;DHT22;37937;61.490;23.506;2023-03-14T16:01:50;1.20;99.90
3478;DHT22;37937;61.490;23.506;2023-03-14T16:04:16;1.20;99.90
3478;DHT22;37937;61.490;23.506;2023-03-14T16:06:42;1.20;99.90
3478;DHT22;37937;61.490;23.506;2023-03-14T16:09:12;1.10;99.90
3478;DHT22;37937;61.490;23.506;2023-03-14T16:11:37;1.10;99.90
3478;DHT22;37937;61.490;23.506;2023-03-14T16:14:03;1.10;99.90
3478;DHT22;37937;61.490;23.506;2023-03-14T16:16:28;1.10;99.90
3478;DHT22;37937;61.490;23.506;2023-03-14T16:18:54;1.10;99.90
3478;DHT22;37937;61.490;23.506;2023-03-14T16:21:20;1.10;99.90
3478;DHT22;37937;61.490;23.506;2023-03-14T16:23:46;1.10;99.90
3478;DHT22;37937;61.490;23.506;2023-03-14T16:26:16;1.10;99.90
3478;DHT22;37937;61.490;23.506;2023-03-14T16:28:42;1.10;99.90
3478;DHT22;37937;61.490;23.506;2023-03-14T16:31:09;1.10;99.90
3478;DHT22;37937;61.490;23.506;2023-03-14T16:33:35;1.10;99.90
3478;DHT22;37937;61.490;23.506;2023-03-14T16:36:02;1.10;99.90
3478;DHT22;37937;61.490;23.506;2023-03-14T16:38:33;1.10;99.90
3478;DHT22;37937;61.490;23.506;2023-03-14T16:40:59;1.10;99.90
3478;DHT22;37937;61.490;23.506;2023-03-14T16:43:26;1.10;99.90
3478;DHT22;37937;61.490;23.506;2023-03-14T16:45:51;1.10;99.90
3478;DHT22;37937;61.490;23.506;2023-03-14T16:48:17;1.10;99.90
3478;DHT22;37937;61.490;23.506;2023-03-14T16:50:43;1.00;99.90
3478;DHT22;37937;61.490;23.506;2023-03-14T16:53:09;1.00;99.90
3478;DHT22;37937;61.490;23.506;2023-03-14T16:55:39;1.00;99.90